Time;durP1;ratioP1;P1;durP2;ratioP2;P2;SDS_P1;SDS_P2;PMS_P1;PMS_P2;Temp;Humidity;BMP_temperature;BMP_pressure;BME280_temperature;BME280_humidity;BME280_pressure;Samples;Min_cycle;Max_cycle;Signal;HPM_P1;HPM_P2
2023/08/10 00:01:50;;;;;;;3.08;1.83;;;;;;;19.90;64.89;102226.31;5069233;28;20406;-44
2023/08/10 00:04:16;;;;;;;3.58;1.80;;;;;;;19.87;64.83;102231.63;5067839;28;20037;-48
2023/08/10 00:06:41;;;;;;;5.13;1.92;;;;;;;19.88;64.69;102231.63;5069899;28;20048;-43
2023/08/10 00:09:11;;;;;;;2.63;1.75;;;;;;;19.89;64.76;102235.13;5069368;28;20051;-50
2023/08/10 00:11:37;;;;;;;4.78;1.88;;;;;;;19.88;64.94;102234.28;5069790;28;20024;-46
2023/08/10 00:14:03;;;;;;;4.43;1.95;;;;;;;19.80;64.97;102226.34;5069242;28;20163;-44
2023/08/10 00:16:29;;;;;;;4.93;2.10;;;;;;;19.86;64.65;102225.44;5069671;28;20062;-45
2023/08/10 00:18:54;;;;;;;4.95;2.13;;;;;;;19.81;64.93;102230.75;5069809;28;20166;-45
2023/08/10 00:21:20;;;;;;;3.88;2.20;;;;;;;19.89;64.74;102227.19;5069518;28;20033;-44
2023/08/10 00:23:45;;;;;;;3.83;2.10;;;;;;;19.87;64.84;102224.56;5069240;28;20028;-45
2023/08/10 00:26:11;;;;;;;3.78;2.17;;;;;;;19.80;64.91;102222.81;5068201;28;20348;-48
2023/08/10 00:28:36;;;;;;;4.15;2.40;;;;;;;19.74;64.81;102222.84;5067620;28;20499;-47
2023/08/10 00:31:03;;;;;;;5.50;2.50;;;;;;;19.55;65.14;102223.78;5067789;28;20036;-44
2023/08/10 00:33:28;;;;;;;6.68;2.50;;;;;;;19.59;64.82;102229.03;5068477;28;20426;-45
2023/08/10 00:35:53;;;;;;;4.82;2.55;;;;;;;19.52;64.70;102226.44;5051594;28;20124;-46
2023/08/10 00:38:19;;;;;;;5.35;2.60;;;;;;;19.47;64.92;102225.53;5062285;28;20054;-52
2023/08/10 00:40:44;;;;;;;6.72;2.33;;;;;;;19.42;65.03;102221.13;5072563;28;20388;-44
2023/08/10 00:43:10;;;;;;;5.38;2.45;;;;;;;19.36;65.37;102223.75;5070478;28;20035;-48
2023/08/10 00:45:37;;;;;;;3.88;2.30;;;;;;;19.30;65.55;102223.78;5072415;28;20161;-50
2023/08/10 00:48:03;;;;;;;7.72;2.50;;;;;;;19.25;65.67;102222.91;5072397;28;20039;-45
2023/08/10 00:50:29;;;;;;;5.65;2.50;;;;;;;19.16;65.82;102224.66;5070484;28;20355;-44
2023/08/10 00:52:55;;;;;;;5.28;2.50;;;;;;;19.12;65.95;102228.19;5050692;28;20025;-45
2023/08/10 00:55:20;;;;;;;3.05;2.13;;;;;;;19.13;66.00;102232.59;5045613;28;20028;-46
2023/08/10 00:57:46;;;;;;;3.53;2.30;;;;;;;19.05;66.65;102230.84;5078199;28;20024;-50
2023/08/10 01:00:13;;;;;;;4.35;2.22;;;;;;;19.02;66.51;102227.31;5080820;28;20564;-49
2023/08/10 01:02:41;;;;;;;3.60;2.25;;;;;;;18.98;66.86;102230.81;5051925;28;20086;-47
2023/08/10 01:05:09;;;;;;;5.28;2.40;;;;;;;18.97;66.71;102229.94;5059081;28;20037;-52
2023/08/10 01:07:48;;;;;;;5.30;2.30;;;;;;;18.84;67.45;102235.25;5070246;28;20120;-46
2023/08/10 01:10:38;;;;;;;3.63;2.20;;;;;;;18.85;67.14;102227.28;5069477;28;20194;-45
2023/08/10 01:13:17;;;;;;;3.65;2.22;;;;;;;18.86;67.43;102231.72;5049887;28;20037;-45
2023/08/10 01:15:53;;;;;;;4.80;2.40;;;;;;;18.85;67.32;102229.94;5063269;28;20096;-47
2023/08/10 01:18:25;;;;;;;4.70;2.47;;;;;;;18.86;67.83;102237.00;5070874;28;20029;-48
2023/08/10 01:20:53;;;;;;;4.00;2.00;;;;;;;18.95;67.37;102234.38;5069175;28;20718;-42
2023/08/10 01:23:35;;;;;;;3.83;2.30;;;;;;;18.89;67.63;102225.56;5070528;28;20032;-45
2023/08/10 01:26:01;;;;;;;4.05;2.20;;;;;;;18.93;67.95;102224.66;5071516;28;20062;-44
2023/08/10 01:28:27;;;;;;;3.88;2.10;;;;;;;18.93;67.80;102222.91;5070976;28;20418;-43
2023/08/10 01:30:53;;;;;;;3.72;2.08;;;;;;;18.92;67.82;102228.19;5073048;28;20032;-43
2023/08/10 01:33:19;;;;;;;6.20;2.10;;;;;;;18.89;67.81;102229.09;5072106;28;20036;-47
2023/08/10 01:35:44;;;;;;;4.15;2.10;;;;;;;18.85;67.91;102221.13;5071290;28;20042;-49
2023/08/10 01:38:10;;;;;;;3.88;2.15;;;;;;;18.82;67.82;102224.66;5070710;28;20038;-44
2023/08/10 01:40:36;;;;;;;3.97;2.10;;;;;;;18.81;67.83;102222.00;5070984;28;20056;-45
2023/08/10 01:43:02;;;;;;;2.83;2.03;;;;;;;18.76;67.67;102214.09;5071038;28;20105;-48
2023/08/10 01:45:28;;;;;;;3.90;2.30;;;;;;;18.71;67.88;102215.84;5070362;28;20028;-45
2023/08/10 01:48:18;;;;;;;4.65;2.15;;;;;;;18.67;68.14;102210.53;5070926;28;20037;-45
2023/08/10 01:50:45;;;;;;;5.00;2.25;;;;;;;18.64;68.25;102214.97;5070911;28;20406;-46
2023/08/10 01:53:33;;;;;;;3.70;2.30;;;;;;;18.60;68.41;102210.53;5070044;28;20114;-50
2023/08/10 01:55:59;;;;;;;4.22;2.20;;;;;;;18.58;68.62;102212.31;5070839;28;20051;-44
2023/08/10 01:58:25;;;;;;;2.83;2.10;;;;;;;18.57;68.70;102218.47;5070400;28;20040;-47
2023/08/10 02:00:51;;;;;;;3.55;2.08;;;;;;;18.55;68.76;102216.69;5070621;28;20119;-44
2023/08/10 02:03:17;;;;;;;4.15;2.15;;;;;;;18.53;68.81;102219.31;5068472;28;20032;-44
2023/08/10 02:05:43;;;;;;;3.72;2.20;;;;;;;18.51;68.85;102221.06;5068978;28;20060;-46
2023/08/10 02:08:08;;;;;;;4.78;2.30;;;;;;;18.47;69.34;102224.59;5068996;28;20063;-48
2023/08/10 02:10:34;;;;;;;3.90;2.17;;;;;;;18.47;69.19;102227.22;5049115;28;20036;-44
2023/08/10 02:12:59;;;;;;;3.95;2.35;;;;;;;18.46;69.48;102224.56;5057465;28;20048;-46
2023/08/10 02:15:25;;;;;;;4.50;2.08;;;;;;;18.45;69.41;102225.44;5069830;28;20028;-45
2023/08/10 02:17:50;;;;;;;4.18;2.00;;;;;;;18.44;69.60;102227.19;5070416;28;20083;-44
2023/08/10 02:20:16;;;;;;;4.20;2.15;;;;;;;18.42;69.59;102221.03;5070040;28;20055;-50
2023/08/10 02:22:45;;;;;;;3.45;2.20;;;;;;;18.38;70.17;102226.31;5052032;28;20036;-44
2023/08/10 02:25:11;;;;;;;3.60;2.25;;;;;;;18.32;70.23;102224.53;5069481;28;20551;-46
2023/08/10 02:27:38;;;;;;;3.17;2.03;;;;;;;18.34;70.42;102224.53;5067970;28;20120;-46
2023/08/10 02:30:04;;;;;;;4.28;2.40;;;;;;;18.32;70.56;102231.56;5052960;28;20097;-51
2023/08/10 02:32:29;;;;;;;4.30;2.22;;;;;;;18.32;70.21;102228.94;5070292;28;20408;-43
2023/08/10 02:34:54;;;;;;;4.65;2.20;;;;;;;18.31;70.50;102235.06;5069327;28;20044;-49
2023/08/10 02:37:20;;;;;;;2.55;1.98;;;;;;;18.32;70.48;102235.09;5069302;28;20139;-44
2023/08/10 02:39:45;;;;;;;2.67;1.95;;;;;;;18.33;70.51;102233.34;5068750;28;20029;-47
2023/08/10 02:42:10;;;;;;;3.55;2.30;;;;;;;18.29;70.84;102236.84;5048023;28;20110;-48
2023/08/10 02:44:36;;;;;;;3.30;2.20;;;;;;;18.29;70.80;102236.84;5062264;28;20060;-47
2023/08/10 02:47:02;;;;;;;2.75;2.10;;;;;;;18.27;70.73;102236.84;5070912;28;20056;-50
2023/08/10 02:49:27;;;;;;;5.60;2.40;;;;;;;18.25;70.94;102233.31;5070834;28;20127;-46
2023/08/10 02:51:53;;;;;;;2.92;2.08;;;;;;;18.23;71.03;102235.97;5071139;28;20407;-47
2023/08/10 02:54:18;;;;;;;3.58;2.10;;;;;;;18.22;71.13;102234.19;5069732;28;20056;-46
2023/08/10 02:56:44;;;;;;;3.97;2.22;;;;;;;18.23;71.05;102241.25;5069916;28;20506;-46
2023/08/10 02:59:09;;;;;;;4.63;2.22;;;;;;;18.27;71.15;102241.22;5069975;28;20406;-46
2023/08/10 03:01:34;;;;;;;2.97;2.20;;;;;;;18.28;71.20;102235.97;5070816;28;20525;-44
2023/08/10 03:04:00;;;;;;;4.32;2.40;;;;;;;18.34;71.28;102240.38;5069997;28;20068;-49
2023/08/10 03:06:27;;;;;;;3.55;2.30;;;;;;;18.33;71.16;102235.97;5069707;28;20108;-45
2023/08/10 03:08:52;;;;;;;5.22;2.60;;;;;;;18.24;71.55;102235.06;5070135;28;20033;-48
2023/08/10 03:11:18;;;;;;;3.55;2.38;;;;;;;18.25;71.89;102241.22;5069122;28;20043;-49
2023/08/10 03:13:43;;;;;;;4.03;2.10;;;;;;;18.30;71.88;102242.13;5069381;28;20680;-54
2023/08/10 03:16:09;;;;;;;5.57;2.38;;;;;;;18.30;71.78;102242.13;5069761;28;20509;-51
2023/08/10 03:18:34;;;;;;;5.25;2.50;;;;;;;18.27;71.75;102230.69;5070462;28;20042;-44
2023/08/10 03:21:00;;;;;;;4.40;2.40;;;;;;;18.25;71.58;102231.53;5069571;28;20024;-46
2023/08/10 03:23:26;;;;;;;4.93;2.47;;;;;;;18.24;71.68;102234.16;5068838;28;20033;-48
2023/08/10 03:25:51;;;;;;;4.53;2.38;;;;;;;18.24;71.83;102231.53;5069211;28;20043;-50
2023/08/10 03:28:16;;;;;;;3.88;2.33;;;;;;;18.22;71.70;102235.94;5069052;28;20040;-48
2023/08/10 03:30:42;;;;;;;4.20;2.25;;;;;;;18.21;71.76;102231.53;5069526;28;20044;-46
2023/08/10 03:33:07;;;;;;;3.78;2.38;;;;;;;18.19;71.84;102226.25;5068728;28;20036;-46
2023/08/10 03:35:32;;;;;;;3.20;2.38;;;;;;;18.19;72.13;102226.25;5070453;28;20032;-44
2023/08/10 03:37:58;;;;;;;4.07;2.60;;;;;;;18.14;72.56;102225.34;5070210;28;20039;-46
2023/08/10 03:40:23;;;;;;;4.93;2.60;;;;;;;18.15;72.20;102224.47;5068647;28;20510;-42
2023/08/10 03:42:48;;;;;;;6.43;2.88;;;;;;;18.31;72.11;102221.88;5067528;28;20570;-44
2023/08/10 03:45:14;;;;;;;5.40;2.70;;;;;;;18.44;72.06;102229.84;5068922;28;20075;-46
2023/08/10 03:47:39;;;;;;;3.95;2.33;;;;;;;18.52;72.21;102228.13;5069265;28;20094;-47
2023/08/10 03:50:06;;;;;;;4.75;2.53;;;;;;;18.57;72.17;102221.09;5068975;28;20036;-49
2023/08/10 03:52:31;;;;;;;4.07;2.60;;;;;;;18.62;72.20;102226.38;5068131;28;20029;-43
2023/08/10 03:54:56;;;;;;;4.05;2.20;;;;;;;18.69;72.22;102222.00;5068960;28;20032;-47
2023/08/10 03:57:22;;;;;;;3.60;2.53;;;;;;;18.68;72.31;102228.16;5068816;28;20044;-44
2023/08/10 03:59:47;;;;;;;7.32;3.00;;;;;;;18.64;72.89;102237.84;5069005;28;20041;-45
2023/08/10 04:02:12;;;;;;;7.00;3.00;;;;;;;18.74;72.59;102231.69;5068613;28;20490;-44
2023/08/10 04:04:38;;;;;;;5.05;3.10;;;;;;;18.82;72.43;102229.06;5068762;28;20067;-44
2023/08/10 04:07:04;;;;;;;5.22;3.10;;;;;;;18.85;72.26;102231.69;5069014;28;20037;-47
2023/08/10 04:09:29;;;;;;;5.45;3.20;;;;;;;18.91;72.27;102234.34;5072178;28;20041;-49
2023/08/10 04:11:55;;;;;;;5.88;2.97;;;;;;;18.98;71.96;102234.34;5072616;28;20526;-45
2023/08/10 04:14:20;;;;;;;5.13;2.92;;;;;;;19.09;71.76;102234.34;5071688;28;20570;-45
2023/08/10 04:16:46;;;;;;;4.25;2.80;;;;;;;19.14;71.35;102231.72;5072981;28;20040;-52
2023/08/10 04:19:11;;;;;;;5.20;2.95;;;;;;;19.21;71.03;102230.84;5072332;28;20040;-44
2023/08/10 04:21:37;;;;;;;5.15;3.17;;;;;;;19.27;70.85;102230.84;5072658;28;20036;-45
2023/08/10 04:24:02;;;;;;;7.65;3.03;;;;;;;19.30;70.49;102231.72;5072401;28;20767;-48
2023/08/10 04:26:28;;;;;;;4.07;2.85;;;;;;;19.15;70.77;102228.22;5072132;28;20425;-50
2023/08/10 04:28:53;;;;;;;3.88;2.78;;;;;;;19.33;70.38;102229.03;5072771;28;20098;-46
2023/08/10 04:31:18;;;;;;;4.90;2.90;;;;;;;19.39;70.19;102229.03;5071782;28;20074;-47
2023/08/10 04:33:44;;;;;;;6.38;2.95;;;;;;;19.48;70.03;102225.53;5071845;28;20064;-49
2023/08/10 04:36:09;;;;;;;5.68;2.70;;;;;;;19.59;69.79;102225.50;5071847;28;20032;-44
2023/08/10 04:38:35;;;;;;;3.75;2.70;;;;;;;19.65;69.57;102218.44;5072837;28;20085;-49
2023/08/10 04:41:00;;;;;;;3.20;2.60;;;;;;;19.68;69.50;102226.38;5072512;28;20040;-46
2023/08/10 04:43:25;;;;;;;5.75;2.83;;;;;;;19.71;69.43;102225.47;5071684;28;20380;-44
2023/08/10 04:45:51;;;;;;;5.00;2.50;;;;;;;19.74;68.95;102221.06;5073478;28;20094;-49
2023/08/10 04:48:16;;;;;;;3.80;2.72;;;;;;;19.82;68.58;102219.25;5073836;28;20479;-47
2023/08/10 04:50:42;;;;;;;5.53;2.60;;;;;;;19.85;68.28;102218.38;5073613;28;20036;-48
2023/08/10 04:53:07;;;;;;;6.53;2.55;;;;;;;19.94;68.15;102221.00;5072681;28;20028;-51
2023/08/10 04:55:32;;;;;;;4.40;2.70;;;;;;;19.90;67.95;102216.59;5072462;28;20041;-44
2023/08/10 04:57:58;;;;;;;3.47;2.28;;;;;;;20.01;67.77;102219.19;5073228;28;20029;-44
2023/08/10 05:00:23;;;;;;;4.28;2.70;;;;;;;20.00;67.64;102220.09;5071999;28;20059;-45
2023/08/10 05:02:50;;;;;;;4.47;2.70;;;;;;;20.04;67.31;102217.44;5070405;28;20538;-43
2023/08/10 05:05:16;;;;;;;3.38;2.58;;;;;;;20.09;67.28;102217.41;5071474;28;20052;-46
2023/08/10 05:07:41;;;;;;;4.82;3.00;;;;;;;20.06;67.53;102218.31;5070897;28;20065;-45
2023/08/10 05:10:08;;;;;;;5.20;2.97;;;;;;;20.14;67.20;102212.97;5072565;28;20454;-45
2023/08/10 05:12:35;;;;;;;4.90;2.58;;;;;;;20.19;66.91;102220.00;5037236;28;20028;-51
2023/08/10 05:15:01;;;;;;;3.97;2.35;;;;;;;20.27;66.69;102218.19;5072871;28;20033;-44
2023/08/10 05:17:26;;;;;;;3.78;2.65;;;;;;;20.26;66.67;102215.53;5050705;28;20033;-49
2023/08/10 05:19:52;;;;;;;4.53;2.80;;;;;;;20.29;66.58;102215.53;5067417;28;20098;-46
2023/08/10 05:22:17;;;;;;;4.18;2.60;;;;;;;20.27;66.45;102209.38;5074928;28;20060;-46
2023/08/10 05:24:42;;;;;;;5.72;2.90;;;;;;;20.34;66.46;102219.06;5081204;28;20147;-48
2023/08/10 05:27:08;;;;;;;6.50;3.00;;;;;;;20.21;66.58;102222.66;5086643;28;20033;-48
2023/08/10 05:29:33;;;;;;;4.03;2.92;;;;;;;20.34;66.20;102215.53;5075938;28;20037;-44
2023/08/10 05:31:58;;;;;;;7.03;2.88;;;;;;;20.30;66.66;102221.72;5073212;28;20032;-46
2023/08/10 05:34:24;;;;;;;6.95;2.80;;;;;;;20.34;66.79;102219.06;5072163;28;20048;-43
2023/08/10 05:36:49;;;;;;;4.75;2.47;;;;;;;20.40;66.61;102215.50;5073590;28;20080;-48
2023/08/10 05:39:15;;;;;;;4.55;2.72;;;;;;;20.39;66.66;102217.28;5072463;28;20124;-44
2023/08/10 05:41:40;;;;;;;4.00;2.38;;;;;;;20.49;66.48;102220.78;5072776;28;20036;-44
2023/08/10 05:44:06;;;;;;;4.75;3.10;;;;;;;20.37;66.57;102224.34;5071708;28;20032;-48
2023/08/10 05:46:31;;;;;;;7.50;2.90;;;;;;;20.52;66.21;102223.38;5070294;28;20123;-44
2023/08/10 05:48:57;;;;;;;4.72;2.90;;;;;;;20.42;66.69;102221.69;5072006;28;20047;-45
2023/08/10 05:51:22;;;;;;;5.15;2.90;;;;;;;20.50;66.56;102219.84;5070843;28;20048;-46
2023/08/10 05:53:48;;;;;;;4.25;2.35;;;;;;;20.60;66.26;102219.81;5070916;28;20077;-47
2023/08/10 05:56:13;;;;;;;4.00;2.70;;;;;;;20.61;66.13;102223.34;5070711;28;20101;-45
2023/08/10 05:58:39;;;;;;;4.85;2.85;;;;;;;20.67;66.21;102224.16;5070990;28;20035;-48
2023/08/10 06:01:05;;;;;;;4.88;2.75;;;;;;;20.62;66.28;102219.78;5070901;28;20127;-44
2023/08/10 06:03:30;;;;;;;5.05;3.00;;;;;;;20.57;66.32;102210.97;5069678;28;20063;-44
2023/08/10 06:05:55;;;;;;;4.22;2.97;;;;;;;20.60;65.97;102214.50;5070743;28;20111;-44
2023/08/10 06:08:22;;;;;;;5.78;2.90;;;;;;;20.67;65.90;102218.84;5070384;28;20044;-48
2023/08/10 06:10:49;;;;;;;4.72;2.83;;;;;;;20.83;65.42;102218.75;5070841;28;20044;-46
2023/08/10 06:13:15;;;;;;;5.70;2.90;;;;;;;20.89;65.51;102214.28;5069665;28;20047;-46
2023/08/10 06:15:40;;;;;;;4.72;3.00;;;;;;;20.96;65.33;102210.69;5070640;28;20159;-46
2023/08/10 06:18:06;;;;;;;6.07;3.58;;;;;;;20.93;65.28;102216.00;5070637;28;20646;-44
2023/08/10 06:20:33;;;;;;;6.22;3.40;;;;;;;20.97;64.84;102209.81;5070166;28;20033;-49
2023/08/10 06:22:59;;;;;;;4.97;3.13;;;;;;;21.11;64.52;102220.28;5070608;28;20071;-44
2023/08/10 06:25:24;;;;;;;6.57;3.40;;;;;;;21.14;64.55;102220.28;5069629;28;20060;-44
2023/08/10 06:27:50;;;;;;;7.68;3.28;;;;;;;21.18;63.76;102219.38;5070926;28;20044;-46
2023/08/10 06:30:16;;;;;;;5.90;3.28;;;;;;;21.21;63.47;102219.34;5072087;28;20433;-44
2023/08/10 06:32:41;;;;;;;4.13;3.17;;;;;;;21.19;62.88;102222.91;5068582;28;20043;-45
2023/08/10 06:35:08;;;;;;;5.75;3.50;;;;;;;21.39;62.46;102221.84;5070316;28;20059;-45
2023/08/10 06:37:34;;;;;;;5.75;3.25;;;;;;;21.53;62.01;102226.13;5069899;28;20032;-44
2023/08/10 06:39:59;;;;;;;6.47;3.60;;;;;;;21.40;62.20;102225.38;5072087;28;20758;-48
2023/08/10 06:42:25;;;;;;;6.03;3.78;;;;;;;21.53;61.95;102221.66;5071327;28;20123;-45
2023/08/10 06:44:50;;;;;;;7.88;4.03;;;;;;;21.16;62.45;102226.47;5070358;28;20499;-45
2023/08/10 06:47:15;;;;;;;8.70;3.80;;;;;;;21.49;61.70;102229.69;5067467;28;20063;-50
2023/08/10 06:49:41;;;;;;;7.35;3.80;;;;;;;21.77;60.57;102224.06;5069923;28;20569;-45
2023/08/10 06:52:06;;;;;;;7.28;4.00;;;;;;;21.79;60.39;102227.56;5070148;28;20039;-45
2023/08/10 06:54:31;;;;;;;8.98;4.30;;;;;;;21.93;59.88;102230.06;5068923;28;20033;-46
2023/08/10 06:56:57;;;;;;;6.40;3.95;;;;;;;21.73;60.58;102227.66;5069781;28;20052;-49
2023/08/10 06:59:23;;;;;;;7.10;4.00;;;;;;;21.92;59.50;102233.63;5069445;28;20032;-46
2023/08/10 07:01:48;;;;;;;6.57;4.05;;;;;;;22.24;59.22;102230.59;5069834;28;20036;-45
2023/08/10 07:04:13;;;;;;;7.18;4.28;;;;;;;22.28;59.13;102229.66;5068735;28;20032;-47
2023/08/10 07:06:39;;;;;;;8.52;4.40;;;;;;;22.33;58.67;102230.47;5069702;28;20029;-48
2023/08/10 07:09:04;;;;;;;7.10;4.47;;;;;;;22.11;59.46;102227.22;5068945;28;20044;-45
2023/08/10 07:11:31;;;;;;;8.05;4.18;;;;;;;22.26;58.41;102226.16;5069388;28;20060;-45
2023/08/10 07:13:56;;;;;;;5.90;4.40;;;;;;;22.08;59.52;102229.91;5069435;28;20493;-46
2023/08/10 07:16:22;;;;;;;7.28;4.35;;;;;;;22.37;58.49;102228.66;5067227;28;20033;-47
2023/08/10 07:18:47;;;;;;;7.47;4.40;;;;;;;22.53;58.24;102225.75;5070090;28;20033;-45
2023/08/10 07:21:12;;;;;;;7.88;3.97;;;;;;;22.91;57.26;102221.66;5070144;28;20032;-46
2023/08/10 07:23:38;;;;;;;7.35;4.35;;;;;;;23.04;57.54;102229.41;5070056;28;20033;-43
2023/08/10 07:26:03;;;;;;;6.18;4.30;;;;;;;23.19;57.15;102230.94;5069533;28;20041;-49
2023/08/10 07:28:28;;;;;;;7.05;4.00;;;;;;;23.29;56.69;102231.66;5069201;28;20039;-46
2023/08/10 07:30:54;;;;;;;6.72;4.22;;;;;;;23.27;55.97;102229.00;5067512;28;20040;-44
2023/08/10 07:33:20;;;;;;;7.35;4.18;;;;;;;23.20;56.32;102230.03;5068600;28;20043;-46
2023/08/10 07:35:46;;;;;;;10.13;4.20;;;;;;;22.92;55.56;102232.28;5069180;28;20039;-44
2023/08/10 07:38:12;;;;;;;8.25;4.80;;;;;;;23.28;54.67;102230.78;5068834;28;20036;-47
2023/08/10 07:40:38;;;;;;;8.73;4.70;;;;;;;22.61;55.17;102228.31;5066123;28;20033;-43
2023/08/10 07:43:04;;;;;;;10.25;4.97;;;;;;;23.23;53.62;102234.44;5071932;28;20047;-50
2023/08/10 07:45:29;;;;;;;11.80;4.93;;;;;;;23.19;53.53;102236.25;5071542;28;20524;-50
2023/08/10 07:47:54;;;;;;;8.60;4.68;;;;;;;23.52;53.04;102233.94;5071956;28;20032;-45
2023/08/10 07:50:19;;;;;;;8.30;4.55;;;;;;;23.77;52.61;102236.09;5072270;28;20571;-47
2023/08/10 07:52:45;;;;;;;10.70;4.85;;;;;;;23.74;52.21;102233.47;5072470;28;20040;-49
2023/08/10 07:55:12;;;;;;;8.27;4.65;;;;;;;23.77;50.67;102235.22;5072246;28;20445;-44
2023/08/10 07:57:38;;;;;;;8.27;5.07;;;;;;;23.93;51.09;102231.31;5072432;28;20082;-48
2023/08/10 08:00:05;;;;;;;10.52;5.07;;;;;;;24.02;50.76;102227.59;5072189;28;20032;-49
2023/08/10 08:02:32;;;;;;;9.07;4.93;;;;;;;24.03;51.11;102243.53;5071636;28;20056;-44
2023/08/10 08:04:57;;;;;;;9.52;4.93;;;;;;;24.15;51.37;102240.63;5072242;28;20082;-45
2023/08/10 08:07:25;;;;;;;12.18;5.15;;;;;;;24.18;50.34;102235.28;5072268;28;20503;-49
2023/08/10 08:09:51;;;;;;;9.15;4.70;;;;;;;24.16;50.76;102245.03;5072568;28;20106;-48
2023/08/10 08:12:16;;;;;;;7.43;4.70;;;;;;;24.29;50.28;102234.16;5072870;28;20040;-51
2023/08/10 08:14:43;;;;;;;7.47;4.40;;;;;;;24.36;50.24;102246.44;5072391;28;20124;-45
2023/08/10 08:17:09;;;;;;;7.68;3.92;;;;;;;24.35;49.04;102247.34;5073167;28;20029;-47
2023/08/10 08:19:36;;;;;;;5.07;3.40;;;;;;;24.40;48.97;102246.31;5073079;28;20036;-46
2023/08/10 08:22:02;;;;;;;5.82;3.60;;;;;;;24.27;50.00;102246.66;5073549;28;20473;-46
2023/08/10 08:24:27;;;;;;;6.90;3.80;;;;;;;24.57;49.65;102243.31;5072894;28;20124;-43
2023/08/10 08:26:53;;;;;;;8.13;3.55;;;;;;;24.73;50.21;102246.47;5076207;28;20136;-43
2023/08/10 08:29:18;;;;;;;7.68;3.30;;;;;;;24.48;49.98;102247.03;5075668;28;20039;-44
2023/08/10 08:31:44;;;;;;;7.00;2.95;;;;;;;24.67;49.67;102247.50;5078179;28;20040;-45
2023/08/10 08:34:10;;;;;;;6.18;2.70;;;;;;;25.01;49.26;102247.59;5073309;28;20040;-49
2023/08/10 08:36:35;;;;;;;4.05;2.38;;;;;;;25.19;46.18;102241.78;5073629;28;20036;-49
2023/08/10 08:39:00;;;;;;;3.70;2.30;;;;;;;25.07;45.69;102246.59;5072400;28;20036;-48
2023/08/10 08:41:33;;;;;;;3.35;2.20;;;;;;;25.06;46.68;102251.03;5071412;28;20150;-48
2023/08/10 08:43:58;;;;;;;2.90;2.10;;;;;;;25.03;47.00;102251.97;5069939;28;20151;-46
2023/08/10 08:46:29;;;;;;;4.70;2.20;;;;;;;24.65;45.80;102249.31;5071545;28;20033;-55
2023/08/10 08:48:55;;;;;;;4.55;1.98;;;;;;;25.17;45.65;102251.63;5071078;28;20044;-51
2023/08/10 08:51:21;;;;;;;3.40;2.05;;;;;;;25.43;45.68;102249.16;5071617;28;20549;-50
2023/08/10 08:53:47;;;;;;;3.20;1.95;;;;;;;25.50;45.42;102252.53;5070306;28;20036;-53
2023/08/10 08:56:14;;;;;;;4.68;2.45;;;;;;;25.71;43.52;102249.31;5070881;28;20059;-47
2023/08/10 08:58:39;;;;;;;4.28;2.55;;;;;;;25.27;44.53;102241.59;5070954;28;20077;-46
2023/08/10 09:01:07;;;;;;;4.82;2.70;;;;;;;25.56;44.22;102236.34;5071933;28;20601;-47
2023/08/10 09:03:32;;;;;;;4.43;2.70;;;;;;;25.85;43.53;102241.81;5070430;28;20056;-49
2023/08/10 09:05:58;;;;;;;6.15;2.80;;;;;;;25.76;43.29;102242.06;5071584;28;20055;-48
2023/08/10 09:08:23;;;;;;;4.50;2.88;;;;;;;25.53;44.63;102235.56;5071599;28;20183;-50
2023/08/10 09:10:49;;;;;;;5.03;2.80;;;;;;;25.68;44.45;102236.03;5071865;28;20032;-50
2023/08/10 09:13:21;;;;;;;4.15;2.70;;;;;;;25.70;44.61;102231.53;5070133;28;20147;-46
2023/08/10 09:16:10;;;;;;;6.50;3.00;;;;;;;25.54;46.05;102227.53;5071734;28;20029;-45
2023/08/10 09:18:38;;;;;;;3.97;2.83;;;;;;;25.09;46.82;102229.59;5059692;28;20279;-50
2023/08/10 09:21:18;;;;;;;5.43;2.75;;;;;;;25.56;47.18;102235.47;5071378;28;20494;-51
2023/08/10 09:23:53;;;;;;;5.60;3.40;;;;;;;25.65;44.68;102229.91;5070871;28;20052;-50
2023/08/10 09:26:20;;;;;;;9.10;3.55;;;;;;;25.98;43.76;102234.31;5071074;28;20044;-50
2023/08/10 09:28:47;;;;;;;4.57;3.30;;;;;;;25.79;44.50;102230.41;5071475;28;20036;-45
2023/08/10 09:31:20;;;;;;;4.60;3.38;;;;;;;25.80;45.26;102234.81;5070849;28;20032;-49
2023/08/10 09:33:52;;;;;;;8.57;3.60;;;;;;;25.95;43.84;102234.41;5071083;28;20028;-45
2023/08/10 09:36:22;;;;;;;6.03;3.13;;;;;;;26.05;43.65;102240.34;5070790;28;20028;-47
2023/08/10 09:38:52;;;;;;;5.95;3.60;;;;;;;24.94;45.16;102241.56;5071652;28;20040;-46
2023/08/10 09:41:20;;;;;;;7.50;3.50;;;;;;;25.60;43.36;102231.84;5070696;28;20040;-48
2023/08/10 09:43:46;;;;;;;7.32;2.85;;;;;;;25.86;43.24;102242.66;5068973;28;20059;-48
2023/08/10 09:46:14;;;;;;;4.65;2.90;;;;;;;25.75;44.06;102236.75;5070702;28;20053;-48
2023/08/10 09:48:41;;;;;;;6.68;4.20;;;;;;;25.78;46.26;102245.56;5072125;28;20032;-48
2023/08/10 09:51:08;;;;;;;5.85;3.03;;;;;;;25.35;44.45;102253.84;5071587;28;20040;-48
2023/08/10 09:53:35;;;;;;;8.85;2.90;;;;;;;25.49;44.59;102242.78;5070896;28;20065;-49
2023/08/10 09:56:01;;;;;;;5.35;2.70;;;;;;;25.46;46.39;102251.75;5071088;28;20531;-48
2023/08/10 09:58:27;;;;;;;6.70;3.00;;;;;;;25.36;45.22;102246.72;5070693;28;20178;-48
2023/08/10 10:00:53;;;;;;;4.72;2.70;;;;;;;25.13;47.17;102247.28;5070977;28;20494;-50
2023/08/10 10:03:22;;;;;;;8.05;3.00;;;;;;;25.27;45.67;102244.25;5069875;28;20498;-47
2023/08/10 10:05:51;;;;;;;4.63;2.63;;;;;;;25.11;46.46;102242.91;5069664;28;20107;-50
2023/08/10 10:08:17;;;;;;;5.05;2.35;;;;;;;25.71;46.39;102245.78;5070405;28;20044;-48
2023/08/10 10:10:45;;;;;;;5.35;2.70;;;;;;;26.23;44.00;102248.72;5070585;28;20032;-46
2023/08/10 10:13:15;;;;;;;7.95;2.50;;;;;;;26.06;46.62;102240.28;5069599;28;20123;-49
2023/08/10 10:15:42;;;;;;;5.32;2.58;;;;;;;25.55;46.46;102233.75;5070411;28;20123;-46
2023/08/10 10:18:09;;;;;;;4.85;2.38;;;;;;;26.01;46.30;102239.56;5069599;28;20028;-50
2023/08/10 10:20:38;;;;;;;6.80;2.95;;;;;;;25.64;46.50;102238.84;5068755;28;20064;-48
2023/08/10 10:23:04;;;;;;;6.43;2.40;;;;;;;25.89;45.67;102241.72;5069865;28;20398;-48
2023/08/10 10:25:29;;;;;;;5.18;2.55;;;;;;;26.10;43.98;102246.44;5069728;28;20037;-52
2023/08/10 10:27:56;;;;;;;5.70;2.58;;;;;;;26.60;43.96;102236.88;5071031;28;20076;-45
2023/08/10 10:30:24;;;;;;;6.05;2.30;;;;;;;26.53;43.19;102240.69;5070475;28;20029;-46
2023/08/10 10:32:51;;;;;;;4.43;2.25;;;;;;;27.12;43.53;102229.88;5070312;28;20047;-48
2023/08/10 10:35:28;;;;;;;5.25;2.65;;;;;;;27.34;39.47;102230.88;5069719;28;20035;-45
2023/08/10 10:37:58;;;;;;;5.18;2.88;;;;;;;27.29;40.38;102225.69;5070304;28;20032;-46
2023/08/10 10:40:24;;;;;;;11.13;3.00;;;;;;;27.25;40.47;102236.56;5069729;28;20568;-52
2023/08/10 10:43:02;;;;;;;7.63;3.00;;;;;;;26.82;42.32;102232.63;5069620;28;20059;-50
2023/08/10 10:45:28;;;;;;;5.20;3.00;;;;;;;26.96;42.68;102238.41;5069337;28;20120;-51
2023/08/10 10:47:55;;;;;;;6.45;2.80;;;;;;;27.35;41.60;102238.84;5068752;28;20155;-47
2023/08/10 10:50:27;;;;;;;4.93;2.67;;;;;;;26.94;41.95;102239.41;5069618;28;20036;-47
2023/08/10 10:53:02;;;;;;;6.38;2.63;;;;;;;26.39;44.51;102232.22;5069842;28;20119;-45
2023/08/10 10:55:37;;;;;;;5.80;3.03;;;;;;;26.63;43.22;102236.81;5069426;28;20041;-49
2023/08/10 10:58:04;;;;;;;7.50;3.00;;;;;;;26.76;42.71;102223.91;5070203;28;20036;-49
2023/08/10 11:00:30;;;;;;;6.50;3.90;;;;;;;26.35;43.63;102230.59;5067334;28;20040;-45
2023/08/10 11:02:56;;;;;;;5.47;3.10;;;;;;;26.59;42.85;102227.97;5070255;28;20060;-46
2023/08/10 11:05:22;;;;;;;4.63;3.00;;;;;;;25.76;43.52;102233.16;5071185;28;20044;-46
2023/08/10 11:07:49;;;;;;;10.45;2.80;;;;;;;27.30;42.11;102226.56;5072954;28;20041;-46
2023/08/10 11:10:16;;;;;;;4.38;2.90;;;;;;;28.09;39.84;102221.88;5070870;28;20123;-51
2023/08/10 11:12:43;;;;;;;3.80;2.38;;;;;;;28.31;38.56;102221.06;5071388;28;20028;-42
2023/08/10 11:15:12;;;;;;;3.30;2.47;;;;;;;28.24;37.86;102226.66;5073279;28;20142;-52
2023/08/10 11:17:42;;;;;;;4.53;2.75;;;;;;;27.63;38.23;102219.16;5074250;28;20041;-46
2023/08/10 11:20:11;;;;;;;5.45;2.90;;;;;;;27.64;38.88;102231.59;5078116;28;20029;-57
2023/08/10 11:22:38;;;;;;;3.47;2.22;;;;;;;28.29;38.20;102231.00;5079929;28;20037;-50